Green Sea, SC (29545)

5:19 PM EDT on September 20, 2014 (GMT -0400)
J. R. Morgan | Change Station
CLOSE
Current Station
Personal Weather Station
Location: Green Sea, SC
Elevation: 110 ft
Nearby Weather Stations

Elev 110 ft 34.13 °N, 78.97 °W | Updated 9 seconds ago

Partly Cloudy
Partly Cloudy
75.4 °F
Feels Like 76 °F
N
2.0
Wind Variable Wind from NNE
Gusts 6.0 mph

Today
High -- | Low -- °F
--% Chance of Precip.
Yesterday
High -- | Low -- °F
Precip. -- in
7:02 AM 7:15 PM
Waning Crescent, 10% visible
Pressure 29.98 in
Visibility 10.0 miles
Clouds Scattered Clouds 3200 ft
Heat Index 76 °F
Dew Point 68 °F
Humidity 78%
Rainfall 0.00 in
Snow Depth Not available.
UV 2 out of 12
Pollen 8.40 out of 12
Air Quality Not available.
Flu Activity Not available.
METAR KCPC 202055Z AUTO 02004KT 10SM SCT032 24/18 A2998 RMK AO2 T02430184

More Conditions Fewer Conditions

Pressure 29.98 in
Visibility 10.0 miles
Clouds Scattered Clouds 3200 ft
Heat Index 76 °F
Dew Point 68 °F
Humidity 78%
Rainfall 0.00 in
Snow Depth Not available.
UV 2 out of 12
Pollen 8.40 out of 12
Air Quality Not available.
Flu Activity Not available.
METAR KCPC 202055Z AUTO 02004KT 10SM SCT032 24/18 A2998 RMK AO2 T02430184

More Conditions Fewer Conditions

10-Day Weather Forecast

Almanac

Astronomy

Sep. 20, 2014 Rise Set
Actual Time 7:02 AM EDT 7:15 PM EDT
Civil Twilight 6:37 AM EDT 7:40 PM EDT
Nautical Twilight 6:08 AM EDT 8:09 PM EDT
Astronomical Twilight 5:38 AM EDT 8:39 PM EDT
Moon 3:47 AM EDT 5:11 PM EDT
Length of Visible Light 13h 02m
Length of Day
12h 12m
Tomorrow will be 2m 7s shorter.
Waning Crescent, 10% of the Moon is Illuminated
Today
Waning Crescent
Sep 24
New
Oct 1
First Quarter
Oct 8
Full
Oct 15
Last Quarter

Today's Extremes

State Highs State Lows

Community

WunderPhotos

Upload Photos

1,754,947 photos uploaded!

WunderBlogs® & News

Nearby

Snow Depth

Station Depth Elevation
No new snow has been reported.

Earthquake Activity

City Distance Mag. Time & Date
No recent earthquake activity has been reported nearby.
Minimum magnitude displayed is 2.5.

Coastal Water Temperatures

Place Temperature
Springmaid Pier, SC 79.0 °F

Nearby Weather Stations